Terminal Aerodrome Forecast
Issued by NWS Cleveland, OH

Home | Current Version | Previous Version | Text Only | Print | Product List | Glossary On
Versions: 1 2 3 4 5 6 7 8 9 10 11 12 13 14 15 16 17 18 19
000
FTUS41 KCLE 280500
TAFMFD
TAF
KMFD 280538Z 2806/2906 27012KT 4SM -SHRA BKN006 OVC018
      TEMPO 2808/2809 4SM -SHRA SCT018 OVC025
     FM280900 30008KT P6SM SCT008 OVC015
      TEMPO 2809/2811 3SM -SHSNPL BKN008
     FM281700 31008KT P6SM OVC025
     FM290000 31008KT P6SM SCT035 BKN250=

USA.gov is the U.S. government's official web portal to all federal, state and local government web resources and services.